Date,TemperatureHighF,TemperatureAvgF,TemperatureLowF,DewpointHighF,DewpointAvgF,DewpointLowF,HumidityHigh,HumidityAvg,HumidityLow,PressureMaxIn,PressureMinIn,WindSpeedMaxMPH,WindSpeedAvgMPH,GustSpeedMaxMPH,PrecipitationSumIn
2013-2-1,22.0,12.9,8.0,20.0,8.2,1.0,90,81,69,30.25,29.74,18,8,29,0.00
2013-2-2,24.0,15.9,6.0,22.0,10.9,1.0,91,81,62,30.24,29.90,7,2,18,0.00
2013-2-3,25.0,22.4,17.0,22.0,19.6,12.0,92,88,78,29.99,29.76,18,6,25,0.00
2013-2-4,31.0,22.5,17.0,29.0,18.0,12.0,93,83,67,30.02,29.80,9,4,18,0.05
2013-2-5,34.0,31.7,30.0,32.0,29.4,28.0,94,92,83,29.89,29.78,12,4,22,0.05
2013-2-6,31.0,28.1,25.0,29.0,25.9,23.0,94,91,87,30.27,29.88,11,3,18,0.01
2013-2-7,45.0,33.3,23.0,33.0,27.5,21.0,93,80,59,30.23,29.93,3,1,8,0.26
2013-2-8,39.0,33.1,24.0,36.0,29.5,20.0,93,86,80,30.10,29.79,20,8,33,0.13
2013-2-9,33.0,25.2,22.0,20.0,18.1,16.0,87,75,55,30.31,30.10,18,6,29,0.01
2013-2-10,53.0,36.3,21.0,31.0,19.2,11.0,78,52,29,30.29,29.98,4,1,8,0.03
2013-2-11,59.0,48.5,36.0,47.0,35.4,22.0,92,65,29,29.98,29.71,23,8,39,0.15
2013-2-12,46.0,39.1,33.0,28.0,24.4,21.0,71,56,40,30.04,29.87,16,8,32,0.06
2013-2-13,45.0,36.0,30.0,30.0,25.0,20.0,93,66,41,29.90,29.58,13,3,18,0.00
2013-2-14,42.0,33.1,27.0,32.0,27.4,24.0,93,80,64,29.95,29.81,9,2,16,0.05
2013-2-15,40.0,34.1,29.0,32.0,29.2,26.0,94,83,67,30.02,29.90,13,3,17,0.05
2013-2-16,28.0,23.4,19.0,26.0,18.0,12.0,93,80,64,29.98,29.86,11,3,19,0.01
2013-2-17,20.0,15.9,12.0,18.0,9.8,5.0,96,77,62,30.19,29.85,19,9,30,0.00
2013-2-18,47.0,22.9,10.0,27.0,11.1,4.0,78,62,42,30.22,30.04,4,1,13,0.06
2013-2-19,42.0,34.3,24.0,37.0,28.9,17.0,91,81,63,29.92,29.68,25,10,38,0.08
2013-2-20,24.0,19.5,17.0,18.0,13.4,8.0,91,77,66,30.15,29.91,16,11,27,0.02
2013-2-21,26.0,19.7,17.0,18.0,13.7,10.0,87,77,71,30.24,30.12,9,4,16,0.00
2013-2-22,40.0,33.5,22.0,36.0,27.9,16.0,92,80,58,30.16,29.95,6,2,13,0.01
2013-2-23,52.0,41.6,34.0,42.0,35.5,30.0,91,80,58,29.95,29.79,14,3,23,0.01
2013-2-24,34.0,28.8,24.0,31.0,23.7,17.0,89,81,72,30.10,29.80,17,6,27,0.00
2013-2-25,43.0,31.5,22.0,25.0,20.9,17.0,84,66,45,30.14,29.98,7,1,13,0.00
2013-2-26,39.0,36.0,33.0,34.0,27.3,19.0,89,71,54,29.99,29.52,10,5,24,0.53
2013-2-27,39.0,36.8,31.0,37.0,33.4,28.0,93,87,80,29.67,29.54,11,5,24,0.40
2013-2-28,31.0,30.2,29.0,29.0,27.6,26.0,93,90,87,29.77,29.60,12,6,20,0.06